Meteo Giornale » Osservazioni meteo Stati Uniti (USA) » Alice
ore: 13:53 - Osservazioni Meteo Alice
Lat. 27° 44' N Lon. 98° 1' W Alt. 54 metri s.l.m.
37 °C
Poco Nuvoloso
Temp. 24 Ore
25 °C
37 °C
Est/Sud-Est
16.7 Km/h
Dew point 20 °C
Umidità 37 %
Visibilità 10 Km
Il sole sorge alle ore 07:10
Il sole tramonta alle ore 19:54
| Data e Ora | Cielo e Fenomeni | T °C | DP °C | Um. % | Pres. hPa | Vis. km | Vento km/h | |
|---|---|---|---|---|---|---|---|---|
| Oggi h: 13:53 | Poco Nuvoloso | 37 | 20 | 37 | 1014 | 10 | E/SE 16.7 | |
| Oggi h: 12:53 | Poco Nuvoloso | 37 | 20 | 37 | 1014 | 10 | S 20.3 | |
| Oggi h: 11:53 | Sereno | 35 | 21 | 44 | 1015 | 10 | S/SE 16.7 | |
| Oggi h: 10:53 | Sereno | 33 | 22 | 52 | 1015 | 10 | S 16.7 | |
| Oggi h: 09:53 | Sereno | 31 | 24 | 66 | 1015 | 10 | S 16.7 | |
| Oggi h: 08:53 | Sereno | 29 | 25 | 79 | 1015 | 10 | S/SE 16.7 | |
| Oggi h: 07:53 | Sereno | 26 | 24 | 88 | 1014 | 14 | SE 11.1 | |
| Oggi h: 06:53 | Sereno | 25 | 24 | 94 | 1014 | 14 | S/SE 9.3 | |
| Oggi h: 05:53 | Sereno | 26 | 24 | 88 | 1014 | 10 | SE 7.4 | |
| Oggi h: 04:53 | Sereno | 26 | 24 | 88 | 1014 | 10 | SE 9.3 | |
| Oggi h: 04:23 | Nuvoloso | 26 | 24 | 88 | 1014 | 10 | SE 7.4 | |
| Oggi h: 03:53 | Molto Nuvoloso | 27 | 24 | 83 | 1014 | 10 | SE 7.4 | |
| Oggi h: 02:53 | Molto Nuvoloso | 27 | 25 | 88 | 1014 | 10 | SE 9.3 | |
| Oggi h: 01:53 | Nuvoloso | 27 | 24 | 83 | 1014 | 10 | S/SE 9.3 | |
| Oggi h: 00:53 | Sereno | 27 | 24 | 83 | 1014 | 10 | SE 9.3 | |
| Ieri h: 23:53 | Sereno | 28 | 24 | 78 | 1014 | 10 | S/SE 11.1 | |
| Ieri h: 22:53 | Sereno | 28 | 24 | 78 | 1014 | 10 | SE 14.8 | |
| Ieri h: 21:53 | Sereno | 29 | 24 | 74 | 1014 | 10 | S/SE 16.7 | |
| Ieri h: 20:53 | Sereno | 29 | 24 | 74 | 1013 | 10 | SE 20.3 | |
| Ieri h: 19:53 | Sereno | 31 | 22 | 58 | 1012 | 10 | SE 22.2 | |
| Ieri h: 18:53 | Sereno | 33 | 21 | 49 | 1011 | 10 | SE 27.8 | |
| Ieri h: 17:53 | Sereno | 36 | 20 | 39 | 1011 | 10 | E/SE 29.6 | |
| Ieri h: 16:53 | Sereno | 37 | 20 | 37 | 1011 | 10 | SE 22.2 | |
| Ieri h: 15:53 | Poco Nuvoloso | 37 | 21 | 39 | 1012 | 10 | SE 18.5 | |
| Ieri h: 14:53 | Poco Nuvoloso | 36 | 21 | 41 | 1013 | 10 | E/SE 18.5 | |



